• Join FlightAware (Why Join?)
  • Login
  • US Flag 
01:35PM EST


 

Airport Tracker/Info


-or-


 

Live Flight TrackerFlight Track Log ✈ SWA757 ✈ 15-Apr-2013 ✈ KSJC - KSAN

Flight Track Log - Related Links

Times and Time Zones

All times are in EDT time to prevent confusion due to time zone crossing. See the SWA757 flight status page for this flight to view local times or setup timezone preferences in your user account.

Time Position Orientation Groundspeed Altitude Reporting Facility
EDT Latitude Longitude Course Direction KTS MPH feet Rate Location/Type
11:15PM 37.3667 -121.9333 332° Northwest 145 167 1,400  Level Northern Cal TRACON
11:16PM 37.4167 -121.9667 332° Northwest 173 199 4,400 3,180 Climbing Northern Cal TRACON
11:17PM 37.4500 -121.9333 38° Northeast 225 259 7,800 2,880 Climbing Northern Cal TRACON
11:18PM 37.4000 -121.8667 133° Southeast 309 356 10,200 2,280 Climbing Northern Cal TRACON
11:19PM 37.3708 -121.8389 143° Southeast 308 354 11,200 3,240 Climbing Oakland Center
11:20PM 37.2878 -121.7492 139° Southeast 365 420 15,100 3,300 Climbing Oakland Center
11:21PM 37.2008 -121.6453 136° Southeast 431 496 18,000 3,240 Climbing Oakland Center
11:22PM 37.1092 -121.5350 136° Southeast 455 524 21,800 3,240 Climbing Oakland Center
11:23PM 37.0158 -121.4333 139° Southeast 474 545 24,600 3,180 Climbing Oakland Center
11:24PM 36.9181 -121.3283 139° Southeast 466 536 28,300 3,240 Climbing Oakland Center
11:25PM 36.8086 -121.2119 140° Southeast 462 532 31,200 2,520 Climbing Oakland Center
11:26PM 36.7094 -121.1067 140° Southeast 468 539 33,500 2,100 Climbing Oakland Center
11:27PM 36.6122 -121.0000 139° Southeast 467 537 35,500 1,320 Climbing Oakland Center
11:28PM 36.5092 -120.8931 140° Southeast 480 552 36,300 1,200 Climbing Oakland Center
11:29PM 36.4056 -120.7764 138° Southeast 498 573 38,000 1,560 Climbing Oakland Center
11:30PM 36.3008 -120.6650 139° Southeast 497 572 39,500 1,260 Climbing Oakland Center
11:31PM 36.1931 -120.5531 140° Southeast 502 578 40,600 660 Climbing Oakland Center
11:32PM 36.0853 -120.4383 139° Southeast 511 588 40,900 180 Climbing Oakland Center
11:33PM 35.9806 -120.3278 139° Southeast 497 572 41,000  Climbing Oakland Center
11:34PM 35.8747 -120.2172 140° Southeast 495 570 41,000  Level Oakland Center
11:35PM 35.7478 -120.0844 140° Southeast 495 570 41,000  Level Oakland Center
11:36PM 35.6414 -119.9733 140° Southeast 496 571 41,000  Level Oakland Center
11:37PM 35.5292 -119.8753 145° Southeast 491 565 41,000  Level Oakland Center
11:38PM 35.4172 -119.7794 145° Southeast 487 560 41,000  Level Oakland Center
11:39PM 35.3064 -119.6850 145° Southeast 484 557 41,000  Level Oakland Center
11:40PM 35.1967 -119.5903 145° Southeast 481 554 41,000  Level Oakland Center
11:41PM 35.0869 -119.4961 145° Southeast 481 554 41,000  Level Oakland Center
11:41PM 35.0639 -119.4775 147° Southeast 482 555 41,000  Level Los Angeles Center
11:42PM 34.9536 -119.3831 145° Southeast 484 557 41,000  Level Los Angeles Center
11:43PM 34.8425 -119.2889 145° Southeast 485 558 41,000  Level Los Angeles Center
11:44PM 34.7297 -119.1956 146° Southeast 488 562 41,000  Level Los Angeles Center
11:45PM 34.6108 -119.0967 146° Southeast 481 554 41,000  Level Los Angeles Center
11:46PM 34.5025 -119.0036 145° Southeast 477 549 41,000  Level Los Angeles Center
11:47PM 34.3936 -118.9131 146° Southeast 476 548 41,000  Level Los Angeles Center
11:48PM 34.2897 -118.8119 141° Southeast 482 555 41,000 -660 Level Los Angeles Center
11:49PM 34.1703 -118.6844 139° Southeast 478 550 39,700 -1,080 Descending Los Angeles Center
11:51PM 34.0739 -118.5814 138° Southeast 466 536 38,800 -960 Descending Los Angeles Center
11:52PM 33.9761 -118.4764 138° Southeast 469 540 37,800 -1,440 Descending Los Angeles Center
11:53PM 33.8794 -118.3650 136° Southeast 473 544 35,900 -2,580 Descending Los Angeles Center
11:54PM 33.7878 -118.2508 134° Southeast 472 543 32,600 -3,120 Descending Los Angeles Center
11:55PM 33.6931 -118.1253 132° Southeast 479 551 29,600 -2,340 Descending Los Angeles Center
11:56PM 33.6047 -118.0136 134° Southeast 460 529 27,900 -2,040 Descending Los Angeles Center
11:57PM 33.5206 -117.9061 133° Southeast 443 510 25,500 -2,340 Descending Los Angeles Center
11:58PM 33.4386 -117.8036 134° Southeast 428 493 23,100 -2,340 Descending Los Angeles Center
11:59PM 33.3586 -117.7025 133° Southeast 419 482 20,800 -2,580 Descending Los Angeles Center
12:00AM 33.2833 -117.6000 131° Southeast 404 465 18,300 -2,520 Descending Southern California TRACON
12:01AM 33.2000 -117.5167 140° Southeast 392 451 16,100 -2,160 Descending Southern California TRACON
12:01AM 33.1167 -117.4500 146° Southeast 375 432 14,200 -2,220 Descending Southern California TRACON
12:02AM 33.0958 -117.4358 150° Southeast 376 433 13,500 -2,280 Descending Los Angeles Center
12:03AM 33.0117 -117.3692 146° Southeast 366 421 11,200 -1,920 Descending Los Angeles Center
12:03AM 32.9500 -117.3167 144° Southeast 348 400 10,300 -1,260 Descending Southern California TRACON
12:04AM 32.8833 -117.2667 148° Southeast 316 364 9,100 -1,260 Descending Southern California TRACON
12:05AM 32.8583 -117.2472 147° Southeast 321 369 8,600 -1,740 Descending Los Angeles Center
12:06AM 32.8036 -117.1747 132° Southeast 311 358 6,700 -1,680 Descending Los Angeles Center
12:06AM 32.7833 -117.1000 108° East 276 318 5,900 -1,080 Descending Southern California TRACON
12:07AM 32.7667 -117.0333 107° East 249 287 5,000 -480 Descending Southern California TRACON
12:09AM 32.7500 -116.9500 103° East 217 250 5,000 -420 Level Southern California TRACON
12:10AM 32.7000 -116.9500 180° South 188 216 4,200 -1,020 Descending Southern California TRACON
12:11AM 32.6833 -117.0167 253° West 184 212 3,000 -1,140 Descending Southern California TRACON
12:11AM 32.7000 -117.0667 292° West 185 213 2,100 -840 Descending Southern California TRACON
12:12AM 32.7167 -117.1167 292° West 149 171 1,500 -540 Descending Southern California TRACON
12:13AM 32.7222 -117.1375 288° West 150 173 1,200 -720 Descending Los Angeles Center
12:14AM 32.7294 -117.1686 285° West 141 162 300 -900 Descending Los Angeles Center
12:16AM 32.7333 -117.1833 264° West  Level FlightAware Approximate
12:23AM 32.7336 -117.1897 264° West  Level Estimated